createdAt,value
2023-05-20T00:00:53.262Z,100293.34
2023-05-20T00:03:20.910Z,100288.00
2023-05-20T00:05:48.277Z,100294.56
2023-05-20T00:08:15.501Z,100294.75
2023-05-20T00:10:43.000Z,100298.13
2023-05-20T00:13:10.221Z,100300.75
2023-05-20T00:15:37.852Z,100318.13
2023-05-20T00:18:05.755Z,100316.09
2023-05-20T00:20:33.071Z,100318.13
2023-05-20T00:23:00.501Z,100302.66
2023-05-20T00:25:27.994Z,100310.34
2023-05-20T00:27:55.199Z,100300.03
2023-05-20T00:30:22.521Z,100303.62
2023-05-20T00:32:50.215Z,100299.34
2023-05-20T00:35:17.490Z,100293.03
2023-05-20T00:37:44.746Z,100293.78
2023-05-20T00:40:14.837Z,100293.75
2023-05-20T00:42:43.133Z,100293.59
2023-05-20T00:45:10.675Z,100302.47
2023-05-20T00:47:38.252Z,100302.59
2023-05-20T00:50:05.861Z,100304.13
2023-05-20T00:52:33.139Z,100306.03
2023-05-20T00:55:00.610Z,100299.84
2023-05-20T00:57:27.815Z,100311.59
2023-05-20T00:59:55.097Z,100304.44
2023-05-20T01:02:22.792Z,100299.13
2023-05-20T01:04:50.746Z,100302.19
2023-05-20T01:07:18.284Z,100307.66
2023-05-20T01:09:45.790Z,100301.25
2023-05-20T01:12:16.885Z,100300.34
2023-05-20T01:14:47.211Z,100298.69
2023-05-20T01:17:17.818Z,100309.84
2023-05-20T01:19:45.398Z,100317.66
2023-05-20T01:22:13.393Z,100314.13
2023-05-20T01:24:49.881Z,100307.63
2023-05-20T01:27:17.096Z,100312.41
2023-05-20T01:29:45.986Z,100320.78
2023-05-20T01:32:16.119Z,100315.69
2023-05-20T01:34:43.927Z,100321.03
2023-05-20T01:37:11.484Z,100322.06
2023-05-20T01:39:38.707Z,100312.97
2023-05-20T01:42:06.348Z,100307.72
2023-05-20T01:44:33.861Z,100320.06
2023-05-20T01:47:01.746Z,100318.16
2023-05-20T01:49:29.312Z,100326.34
2023-05-20T01:51:57.087Z,100325.63
2023-05-20T01:54:24.336Z,100322.34
2023-05-20T01:56:51.724Z,100327.78
2023-05-20T01:59:19.247Z,100326.50
2023-05-20T02:01:46.563Z,100315.44
2023-05-20T02:04:15.875Z,100315.72
2023-05-20T02:06:43.292Z,100319.25
2023-05-20T02:09:10.530Z,100313.47
2023-05-20T02:11:38.221Z,100312.56
2023-05-20T02:14:05.561Z,100322.09
2023-05-20T02:16:32.816Z,100305.72
2023-05-20T02:19:02.165Z,100313.88
2023-05-20T02:21:29.789Z,100328.94
2023-05-20T02:23:57.040Z,100307.78
2023-05-20T02:26:25.396Z,100320.88
2023-05-20T02:28:52.873Z,100308.84
2023-05-20T02:31:22.551Z,100310.09
2023-05-20T02:33:49.826Z,100309.78
2023-05-20T02:36:17.397Z,100319.19
2023-05-20T02:38:44.752Z,100312.66
2023-05-20T02:41:12.013Z,100305.03
2023-05-20T02:43:40.697Z,100305.31
2023-05-20T02:46:07.899Z,100308.75
2023-05-20T02:48:35.080Z,100308.97
2023-05-20T02:51:02.747Z,100301.97
2023-05-20T02:53:29.994Z,100301.50
2023-05-20T02:55:57.714Z,100299.56
2023-05-20T02:58:26.443Z,100297.31
2023-05-20T03:00:53.988Z,100291.28
2023-05-20T03:03:21.773Z,100297.91
2023-05-20T03:05:50.193Z,100300.91
2023-05-20T03:08:18.577Z,100301.44
2023-05-20T03:10:45.794Z,100303.91
2023-05-20T03:13:15.184Z,100303.31
2023-05-20T03:15:42.567Z,100302.59
2023-05-20T03:18:09.852Z,100308.06
2023-05-20T03:20:38.335Z,100310.25
2023-05-20T03:23:06.181Z,100309.81
2023-05-20T03:25:34.130Z,100312.81
2023-05-20T03:28:01.914Z,100308.84
2023-05-20T03:30:29.621Z,100309.59
2023-05-20T03:32:59.870Z,100315.28
2023-05-20T03:35:27.607Z,100320.50
2023-05-20T03:37:55.107Z,100322.37
2023-05-20T03:40:22.496Z,100324.75
2023-05-20T03:42:51.077Z,100326.84
2023-05-20T03:45:18.727Z,100326.13
2023-05-20T03:47:47.306Z,100330.03
2023-05-20T03:50:16.501Z,100320.75
2023-05-20T03:52:43.937Z,100331.63
2023-05-20T03:55:11.382Z,100321.81
2023-05-20T03:57:39.048Z,100324.78
2023-05-20T04:00:12.006Z,100324.75
2023-05-20T04:02:43.517Z,100330.53
2023-05-20T04:05:11.819Z,100334.25
2023-05-20T04:07:39.330Z,100333.72
2023-05-20T04:10:09.539Z,100334.28
2023-05-20T04:12:38.388Z,100341.03
2023-05-20T04:15:06.142Z,100338.31
2023-05-20T04:17:33.978Z,100348.75
2023-05-20T04:20:01.507Z,100347.16
2023-05-20T04:22:29.122Z,100344.47
2023-05-20T04:24:56.582Z,100343.09
2023-05-20T04:27:26.332Z,100349.16
2023-05-20T04:29:55.030Z,100349.31
2023-05-20T04:32:22.532Z,100347.28
2023-05-20T04:34:50.726Z,100353.09
2023-05-20T04:37:18.445Z,100354.47
2023-05-20T04:39:48.333Z,100360.03
2023-05-20T04:42:18.486Z,100365.09
2023-05-20T04:44:48.809Z,100361.75
2023-05-20T04:47:16.552Z,100363.78
2023-05-20T04:49:43.876Z,100362.91
2023-05-20T04:52:11.134Z,100364.56
2023-05-20T04:54:40.331Z,100364.47
2023-05-20T04:57:07.813Z,100366.03
2023-05-20T04:59:35.400Z,100356.75
2023-05-20T05:02:03.273Z,100361.53
2023-05-20T05:04:30.630Z,100352.31
2023-05-20T05:06:57.898Z,100347.72
2023-05-20T05:09:25.436Z,100348.34
2023-05-20T05:11:52.935Z,100348.38
2023-05-20T05:14:20.160Z,100340.84
2023-05-20T05:16:47.666Z,100344.56
2023-05-20T05:19:15.562Z,100346.84
2023-05-20T05:21:43.063Z,100354.31
2023-05-20T05:24:11.001Z,100350.59
2023-05-20T05:26:38.371Z,100359.00
2023-05-20T05:29:05.606Z,100369.72
2023-05-20T05:31:33.162Z,100359.97
2023-05-20T05:34:01.411Z,100362.75
2023-05-20T05:36:28.682Z,100365.03
2023-05-20T05:38:56.615Z,100366.25
2023-05-20T05:41:23.856Z,100364.06
2023-05-20T05:43:51.968Z,100369.50
2023-05-20T05:46:19.560Z,100370.50
2023-05-20T05:48:49.223Z,100366.91
2023-05-20T05:51:17.390Z,100378.94
2023-05-20T05:53:45.264Z,100371.84
2023-05-20T05:56:12.554Z,100380.72
2023-05-20T05:58:40.134Z,100385.66
2023-05-20T06:01:07.987Z,100383.84
2023-05-20T06:03:35.714Z,100383.63
2023-05-20T06:06:03.157Z,100371.03
2023-05-20T06:08:30.703Z,100372.69
2023-05-20T06:10:59.674Z,100367.41
2023-05-20T06:13:29.532Z,100372.25
2023-05-20T06:15:57.113Z,100365.03
2023-05-20T06:18:25.999Z,100364.97
2023-05-20T06:20:56.935Z,100366.75
2023-05-20T06:23:24.827Z,100370.53
2023-05-20T06:25:53.576Z,100368.97
2023-05-20T06:28:20.849Z,100363.59
2023-05-20T06:30:48.158Z,100357.62
2023-05-20T06:33:16.129Z,100364.59
2023-05-20T06:35:43.349Z,100363.94
2023-05-20T06:38:10.943Z,100363.88
2023-05-20T06:40:38.793Z,100369.19
2023-05-20T06:43:06.035Z,100374.38
2023-05-20T06:45:41.887Z,100363.84
2023-05-20T06:48:11.319Z,100362.22
2023-05-20T06:50:38.912Z,100353.28
2023-05-20T06:53:06.621Z,100358.59
2023-05-20T06:55:34.425Z,100353.38
2023-05-20T06:58:01.974Z,100354.22
2023-05-20T07:00:29.716Z,100356.91
2023-05-20T07:02:57.963Z,100356.94
2023-05-20T07:05:25.849Z,100348.91
2023-05-20T07:07:53.398Z,100356.91
2023-05-20T07:10:21.178Z,100351.53
2023-05-20T07:12:48.858Z,100350.72
2023-05-20T07:15:16.446Z,100346.31
2023-05-20T07:17:43.766Z,100340.59
2023-05-20T07:20:11.174Z,100343.41
2023-05-20T07:22:39.163Z,100338.81
2023-05-20T07:25:07.480Z,100325.47
2023-05-20T07:27:35.947Z,100327.59
2023-05-20T07:30:03.710Z,100320.94
2023-05-20T07:32:31.486Z,100314.94
2023-05-20T07:34:59.448Z,100313.16
2023-05-20T07:37:28.641Z,100310.34
2023-05-20T07:39:56.252Z,100317.94
2023-05-20T07:42:23.501Z,100322.31
2023-05-20T07:44:51.389Z,100325.16
2023-05-20T07:47:19.061Z,100319.81
2023-05-20T07:49:46.952Z,100319.69
2023-05-20T07:52:14.437Z,100320.00
2023-05-20T07:54:41.971Z,100314.31
2023-05-20T07:57:09.383Z,100314.19
2023-05-20T07:59:36.932Z,100316.09
2023-05-20T08:02:05.089Z,100307.91
2023-05-20T08:04:33.004Z,100297.38
2023-05-20T08:07:00.348Z,100306.13
2023-05-20T08:09:28.197Z,100307.91
2023-05-20T08:11:55.952Z,100304.81
2023-05-20T08:14:23.333Z,100303.00
2023-05-20T08:16:53.799Z,100306.25
2023-05-20T08:19:22.321Z,100301.37
2023-05-20T08:21:49.865Z,100292.31
2023-05-20T08:24:17.596Z,100300.47
2023-05-20T08:26:45.294Z,100298.44
2023-05-20T08:29:12.741Z,100292.91
2023-05-20T08:31:40.546Z,100280.25
2023-05-20T08:34:08.342Z,100284.34
2023-05-20T08:36:35.988Z,100285.38
2023-05-20T08:39:04.516Z,100288.22
2023-05-20T08:41:32.244Z,100271.63
2023-05-20T08:44:01.856Z,100283.16
2023-05-20T08:46:30.050Z,100278.44
2023-05-20T08:48:59.397Z,100280.47
2023-05-20T08:51:27.394Z,100271.19
2023-05-20T08:53:54.624Z,100279.59
2023-05-20T08:56:23.647Z,100277.16
2023-05-20T08:58:51.166Z,100277.78
2023-05-20T09:01:18.688Z,100280.72
2023-05-20T09:03:46.215Z,100270.53
2023-05-20T09:06:17.035Z,100266.66
2023-05-20T09:08:44.830Z,100267.41
2023-05-20T09:11:12.495Z,100271.06
2023-05-20T09:13:39.789Z,100269.22
2023-05-20T09:16:07.439Z,100272.16
2023-05-20T09:18:39.026Z,100268.25
2023-05-20T09:21:09.384Z,100271.47
2023-05-20T09:23:38.304Z,100264.91
2023-05-20T09:26:06.138Z,100268.56
2023-05-20T09:28:33.861Z,100264.91
2023-05-20T09:31:02.203Z,100263.25
2023-05-20T09:33:30.504Z,100264.31
2023-05-20T09:36:05.124Z,100272.03
2023-05-20T09:38:39.086Z,100256.59
2023-05-20T09:41:09.425Z,100249.84
2023-05-20T09:43:39.493Z,100249.91
2023-05-20T09:46:08.260Z,100251.94
2023-05-20T09:48:37.290Z,100236.87
2023-05-20T09:51:06.935Z,100232.63
2023-05-20T09:53:34.642Z,100231.13
2023-05-20T09:56:02.129Z,100223.78
2023-05-20T09:58:30.285Z,100228.41
2023-05-20T10:00:57.829Z,100227.72
2023-05-20T10:03:28.060Z,100216.69
2023-05-20T10:06:25.718Z,100216.69
2023-05-20T10:09:19.328Z,100210.88
2023-05-20T10:12:04.569Z,100219.75
2023-05-20T10:14:59.839Z,100203.09
2023-05-20T10:17:36.590Z,100209.75
2023-05-20T10:20:09.203Z,100199.13
2023-05-20T10:22:36.667Z,100207.28
2023-05-20T10:25:12.460Z,100199.87
2023-05-20T10:27:47.101Z,100192.66
2023-05-20T10:30:22.413Z,100199.19
2023-05-20T10:32:54.468Z,100191.41
2023-05-20T10:35:26.414Z,100185.34
2023-05-20T10:37:55.398Z,100193.59
2023-05-20T10:40:23.240Z,100180.94
2023-05-20T10:42:50.690Z,100188.94
2023-05-20T10:45:28.926Z,100183.53
2023-05-20T10:47:58.612Z,100181.69
2023-05-20T10:50:36.839Z,100178.88
2023-05-20T10:53:15.958Z,100171.66
2023-05-20T10:55:54.694Z,100171.75
2023-05-20T10:58:23.935Z,100176.97
2023-05-20T11:00:54.770Z,100160.31
2023-05-20T11:03:23.400Z,100165.50
2023-05-20T11:05:51.232Z,100174.31
2023-05-20T11:08:28.388Z,100166.31
2023-05-20T11:10:57.752Z,100168.28
2023-05-20T11:13:27.149Z,100162.22
2023-05-20T11:15:55.611Z,100157.78
2023-05-20T11:18:23.406Z,100163.81
2023-05-20T11:20:51.140Z,100154.75
2023-05-20T11:23:19.244Z,100157.72
2023-05-20T11:25:47.057Z,100153.28
2023-05-20T11:28:14.729Z,100152.75
2023-05-20T11:30:43.180Z,100146.44
2023-05-20T11:33:17.466Z,100149.53
2023-05-20T11:35:52.867Z,100145.31
2023-05-20T11:38:21.874Z,100139.59
2023-05-20T11:40:54.810Z,100149.94
2023-05-20T11:43:23.780Z,100134.72
2023-05-20T11:45:56.197Z,100138.47
2023-05-20T11:48:24.532Z,100131.16
2023-05-20T11:50:55.631Z,100140.22
2023-05-20T11:53:24.439Z,100139.81
2023-05-20T11:55:56.377Z,100136.47
2023-05-20T11:58:25.551Z,100132.09
2023-05-20T12:00:59.512Z,100128.22
2023-05-20T12:03:37.590Z,100126.66
2023-05-20T12:06:05.295Z,100133.62
2023-05-20T12:08:32.771Z,100128.31
2023-05-20T12:11:00.498Z,100129.94
2023-05-20T12:13:27.966Z,100134.72
2023-05-20T12:15:55.485Z,100131.87
2023-05-20T12:18:23.396Z,100126.94
2023-05-20T12:20:51.655Z,100128.84
2023-05-20T12:23:19.200Z,100134.72
2023-05-20T12:25:49.849Z,100117.41
2023-05-20T12:28:17.791Z,100122.97
2023-05-20T12:30:45.211Z,100124.44
2023-05-20T12:33:12.960Z,100119.47
2023-05-20T12:35:42.229Z,100116.97
2023-05-20T12:38:10.153Z,100119.41
2023-05-20T12:40:38.417Z,100127.50
2023-05-20T12:43:06.383Z,100112.88
2023-05-20T12:45:33.822Z,100114.78
2023-05-20T12:48:01.838Z,100110.38
2023-05-20T12:50:29.842Z,100109.28
2023-05-20T12:52:57.335Z,100110.66
2023-05-20T12:55:30.770Z,100102.94
2023-05-20T12:57:58.681Z,100100.16
2023-05-20T13:00:26.425Z,100097.75
2023-05-20T13:02:54.820Z,100103.16
2023-05-20T13:05:22.857Z,100098.81
2023-05-20T13:07:50.618Z,100093.63
2023-05-20T13:10:18.606Z,100095.16
2023-05-20T13:12:46.406Z,100091.00
2023-05-20T13:15:14.776Z,100083.59
2023-05-20T13:17:45.008Z,100084.22
2023-05-20T13:20:13.102Z,100081.84
2023-05-20T13:22:40.743Z,100074.91
2023-05-20T13:25:08.206Z,100074.78
2023-05-20T13:27:35.481Z,100070.75
2023-05-20T13:30:04.139Z,100071.59
2023-05-20T13:32:31.547Z,100065.19
2023-05-20T13:34:59.753Z,100077.59
2023-05-20T13:37:27.289Z,100063.66
2023-05-20T13:39:54.478Z,100070.75
2023-05-20T13:42:21.733Z,100065.75
2023-05-20T13:44:49.233Z,100072.84
2023-05-20T13:47:16.448Z,100068.03
2023-05-20T13:49:43.692Z,100064.81
2023-05-20T13:52:11.276Z,100061.44
2023-05-20T13:54:38.653Z,100053.53
2023-05-20T13:57:08.084Z,100056.59
2023-05-20T13:59:35.805Z,100057.63
2023-05-20T14:02:03.230Z,100052.78
2023-05-20T14:04:38.163Z,100048.97
2023-05-20T14:07:07.718Z,100051.19
2023-05-20T14:09:36.832Z,100053.28
2023-05-20T14:12:04.524Z,100053.44
2023-05-20T14:14:31.858Z,100049.81
2023-05-20T14:16:59.338Z,100052.03
2023-05-20T14:19:26.954Z,100051.06
2023-05-20T14:21:54.266Z,100051.44
2023-05-20T14:24:23.827Z,100049.59
2023-05-20T14:26:51.271Z,100043.16
2023-05-20T14:29:18.447Z,100028.84
2023-05-20T14:31:46.268Z,100035.50
2023-05-20T14:34:13.506Z,100031.66
2023-05-20T14:36:40.857Z,100033.19
2023-05-20T14:39:08.369Z,100029.41
2023-05-20T14:41:36.455Z,100022.25
2023-05-20T14:44:03.647Z,100024.81
2023-05-20T14:46:31.315Z,100017.69
2023-05-20T14:48:58.589Z,100024.19
2023-05-20T14:51:25.846Z,100019.59
2023-05-20T14:53:53.304Z,100019.38
2023-05-20T14:56:20.807Z,100019.00
2023-05-20T14:58:48.006Z,100021.44
2023-05-20T15:01:15.659Z,100021.59
2023-05-20T15:03:42.960Z,100027.03
2023-05-20T15:06:10.218Z,100036.69
2023-05-20T15:08:37.680Z,100024.91
2023-05-20T15:11:04.936Z,100026.31
2023-05-20T15:13:32.203Z,100024.22
2023-05-20T15:15:59.676Z,100018.94
2023-05-20T15:18:27.365Z,100006.44
2023-05-20T15:20:54.601Z,100003.22
2023-05-20T15:23:22.130Z,100007.59
2023-05-20T15:25:50.393Z,100002.50
2023-05-20T15:28:19.779Z,99999.13
2023-05-20T15:30:51.298Z,99989.41
2023-05-20T15:33:18.595Z,99993.37
2023-05-20T15:35:45.832Z,99991.47
2023-05-20T15:38:13.667Z,99988.94
2023-05-20T15:40:41.417Z,99989.69
2023-05-20T15:43:08.960Z,99986.69
2023-05-20T15:45:36.492Z,99989.06
2023-05-20T15:48:04.296Z,99980.44
2023-05-20T15:50:31.940Z,99982.44
2023-05-20T15:52:59.476Z,99981.56
2023-05-20T15:55:26.732Z,99980.88
2023-05-20T15:57:53.958Z,99976.78
2023-05-20T16:00:21.907Z,99980.13
2023-05-20T16:02:50.808Z,99979.97
2023-05-20T16:05:18.155Z,99976.69
2023-05-20T16:07:46.774Z,99981.62
2023-05-20T16:10:14.305Z,99988.88
2023-05-20T16:12:41.571Z,99991.56
2023-05-20T16:15:10.070Z,99991.34
2023-05-20T16:17:37.798Z,99976.78
2023-05-20T16:20:08.201Z,99975.28
2023-05-20T16:22:35.474Z,99980.75
2023-05-20T16:25:03.130Z,99971.09
2023-05-20T16:27:31.871Z,99971.09
2023-05-20T16:29:59.160Z,99963.69
2023-05-20T16:32:27.123Z,99963.91
2023-05-20T16:34:54.864Z,99973.81
2023-05-20T16:37:22.084Z,99979.78
2023-05-20T16:39:49.590Z,99981.56
2023-05-20T16:42:16.791Z,99975.78
2023-05-20T16:44:46.021Z,99973.50
2023-05-20T16:47:13.521Z,99989.34
2023-05-20T16:49:40.825Z,99983.63
2023-05-20T16:52:08.714Z,99988.97
2023-05-20T16:54:36.392Z,99985.53
2023-05-20T16:57:04.008Z,99976.25
2023-05-20T16:59:35.093Z,99983.56
2023-05-20T17:02:02.538Z,99987.28
2023-05-20T17:04:29.800Z,99981.56
2023-05-20T17:06:57.114Z,99992.63
2023-05-20T17:09:24.608Z,99991.78
2023-05-20T17:11:52.980Z,99993.91
2023-05-20T17:14:20.177Z,99988.03
2023-05-20T17:16:47.775Z,99995.56
2023-05-20T17:19:15.132Z,99996.53
2023-05-20T17:21:42.365Z,99999.41
2023-05-20T17:24:09.890Z,100002.50
2023-05-20T17:26:37.166Z,100002.31
2023-05-20T17:29:04.419Z,99996.97
2023-05-20T17:31:31.926Z,100001.09
2023-05-20T17:33:59.191Z,100004.66
2023-05-20T17:36:26.801Z,100005.09
2023-05-20T17:38:55.673Z,99998.78
2023-05-20T17:41:23.161Z,100004.72
2023-05-20T17:43:50.697Z,100001.75
2023-05-20T17:46:18.621Z,100003.22
2023-05-20T17:48:46.008Z,100005.72
2023-05-20T17:51:13.293Z,100007.78
2023-05-20T17:53:40.765Z,100005.50
2023-05-20T17:56:07.990Z,100005.25
2023-05-20T17:58:35.541Z,100014.94
2023-05-20T18:01:03.105Z,100011.06
2023-05-20T18:03:30.656Z,99999.97
2023-05-20T18:05:57.935Z,99999.63
2023-05-20T18:08:28.042Z,100003.47
2023-05-20T18:10:55.712Z,100005.06
2023-05-20T18:13:22.917Z,100006.75
2023-05-20T18:15:50.210Z,100016.16
2023-05-20T18:18:17.623Z,100005.19
2023-05-20T18:20:44.858Z,100009.22
2023-05-20T18:23:12.082Z,100013.06
2023-05-20T18:25:41.804Z,100006.69
2023-05-20T18:28:11.157Z,100011.84
2023-05-20T18:30:38.432Z,100021.31
2023-05-20T18:33:06.233Z,100014.53
2023-05-20T18:35:34.043Z,100009.09
2023-05-20T18:38:01.208Z,100016.63
2023-05-20T18:40:29.151Z,100021.84
2023-05-20T18:42:56.291Z,100012.66
2023-05-20T18:45:24.912Z,100023.31
2023-05-20T18:47:57.600Z,100022.91
2023-05-20T18:50:24.844Z,100020.34
2023-05-20T18:52:52.134Z,100017.81
2023-05-20T18:55:19.678Z,100012.63
2023-05-20T18:57:46.957Z,100022.38
2023-05-20T19:00:15.604Z,100021.50
2023-05-20T19:02:43.558Z,100023.34
2023-05-20T19:05:12.471Z,100031.91
2023-05-20T19:07:39.860Z,100034.16
2023-05-20T19:10:08.275Z,100035.00
2023-05-20T19:12:35.849Z,100038.88
2023-05-20T19:15:05.161Z,100041.53
2023-05-20T19:17:33.226Z,100038.03
2023-05-20T19:20:00.858Z,100046.81
2023-05-20T19:22:28.324Z,100047.69
2023-05-20T19:24:56.040Z,100044.13
2023-05-20T19:27:23.468Z,100051.13
2023-05-20T19:29:50.841Z,100055.62
2023-05-20T19:32:18.368Z,100055.59
2023-05-20T19:34:45.678Z,100055.47
2023-05-20T19:37:12.889Z,100055.56
2023-05-20T19:39:40.594Z,100052.91
2023-05-20T19:42:07.788Z,100049.34
2023-05-20T19:44:34.956Z,100058.88
2023-05-20T19:47:02.686Z,100062.03
2023-05-20T19:49:30.099Z,100053.41
2023-05-20T19:51:57.519Z,100061.97
2023-05-20T19:54:27.016Z,100055.91
2023-05-20T19:56:54.573Z,100048.38
2023-05-20T19:59:22.040Z,100046.81
2023-05-20T20:01:49.805Z,100047.59
2023-05-20T20:04:18.538Z,100046.66
2023-05-20T20:06:47.128Z,100041.31
2023-05-20T20:09:14.604Z,100052.56
2023-05-20T20:11:43.388Z,100050.19
2023-05-20T20:14:11.126Z,100047.34
2023-05-20T20:16:38.711Z,100053.47
2023-05-20T20:19:06.532Z,100043.00
2023-05-20T20:21:36.276Z,100053.09
2023-05-20T20:24:03.630Z,100049.31
2023-05-20T20:26:31.215Z,100055.62
2023-05-20T20:28:58.477Z,100043.28
2023-05-20T20:31:26.517Z,100045.84
2023-05-20T20:33:54.016Z,100040.41
2023-05-20T20:36:21.372Z,100041.03
2023-05-20T20:38:48.566Z,100049.50
2023-05-20T20:41:16.253Z,100039.19
2023-05-20T20:43:44.922Z,100053.03
2023-05-20T20:46:15.008Z,100036.69
2023-05-20T20:48:45.918Z,100036.59
2023-05-20T20:51:13.853Z,100039.94
2023-05-20T20:53:42.051Z,100033.59
2023-05-20T20:56:09.655Z,100032.84
2023-05-20T20:58:37.802Z,100023.81
2023-05-20T21:01:05.736Z,100032.53
2023-05-20T21:03:40.428Z,100022.91
2023-05-20T21:06:08.130Z,100021.88
2023-05-20T21:08:35.879Z,100023.91
2023-05-20T21:11:03.055Z,100026.44
2023-05-20T21:13:30.591Z,100024.88
2023-05-20T21:15:58.052Z,100029.66
2023-05-20T21:18:25.520Z,100028.47
2023-05-20T21:20:53.151Z,100026.75
2023-05-20T21:23:20.948Z,100030.34
2023-05-20T21:25:48.475Z,100031.59
2023-05-20T21:28:16.135Z,100027.37
2023-05-20T21:30:44.969Z,100028.41
2023-05-20T21:33:12.430Z,100026.75
2023-05-20T21:35:39.653Z,100030.75
2023-05-20T21:38:07.091Z,100025.53
2023-05-20T21:40:34.280Z,100026.16
2023-05-20T21:43:01.600Z,100024.94
2023-05-20T21:45:29.079Z,100027.69
2023-05-20T21:47:56.400Z,100017.03
2023-05-20T21:50:23.713Z,100019.03
2023-05-20T21:52:51.285Z,100008.91
2023-05-20T21:55:23.327Z,100014.75
2023-05-20T21:57:51.152Z,100018.59
2023-05-20T22:00:19.028Z,100012.12
2023-05-20T22:02:46.686Z,100011.81
2023-05-20T22:05:14.732Z,100015.53
2023-05-20T22:07:41.931Z,100012.50
2023-05-20T22:10:09.705Z,100010.00
2023-05-20T22:12:38.094Z,100009.09
2023-05-20T22:15:05.793Z,100009.28
2023-05-20T22:17:36.724Z,100013.13
2023-05-20T22:20:08.381Z,100013.81
2023-05-20T22:22:36.101Z,100010.78
2023-05-20T22:25:03.679Z,100009.06
2023-05-20T22:27:31.728Z,100018.72
2023-05-20T22:29:59.370Z,100015.22
2023-05-20T22:32:26.724Z,100011.41
2023-05-20T22:34:58.675Z,100016.25
2023-05-20T22:37:26.440Z,100023.37
2023-05-20T22:39:53.598Z,100013.28
2023-05-20T22:42:20.882Z,100011.00
2023-05-20T22:44:48.409Z,100011.59
2023-05-20T22:47:15.967Z,100009.94
2023-05-20T22:49:43.284Z,100022.97
2023-05-20T22:52:11.644Z,100025.59
2023-05-20T22:54:38.874Z,100021.41
2023-05-20T22:57:06.157Z,100017.44
2023-05-20T22:59:34.339Z,100025.47
2023-05-20T23:02:02.344Z,100033.53
2023-05-20T23:04:29.819Z,100025.03
2023-05-20T23:06:59.257Z,100027.00
2023-05-20T23:09:27.072Z,100029.78
2023-05-20T23:11:54.247Z,100027.84
2023-05-20T23:14:21.763Z,100020.09
2023-05-20T23:16:49.028Z,100022.66
2023-05-20T23:19:16.838Z,100023.56
2023-05-20T23:21:44.339Z,100019.84
2023-05-20T23:24:11.905Z,100025.19
2023-05-20T23:26:39.660Z,100023.87
2023-05-20T23:29:08.490Z,100016.59
2023-05-20T23:31:36.011Z,100013.25
2023-05-20T23:34:03.890Z,100020.34
2023-05-20T23:36:34.586Z,100020.09
2023-05-20T23:39:04.048Z,100019.53
2023-05-20T23:41:31.693Z,100015.97
2023-05-20T23:43:59.017Z,100021.25
2023-05-20T23:46:26.256Z,100018.47
2023-05-20T23:48:54.634Z,100015.88
2023-05-20T23:51:21.905Z,100007.06
2023-05-20T23:53:49.200Z,100007.97
2023-05-20T23:56:16.772Z,100009.91
2023-05-20T23:58:43.969Z,100008.12
